createdAt,value
2018-12-15T00:01:53.634Z,-1.73
2018-12-15T00:04:32.996Z,-1.79
2018-12-15T00:07:09.784Z,-1.58
2018-12-15T00:12:20.649Z,-1.85
2018-12-15T00:15:00.070Z,-1.96
2018-12-15T00:17:40.733Z,-1.84
2018-12-15T00:20:15.807Z,-1.72
2018-12-15T00:22:56.756Z,-1.62
2018-12-15T00:25:36.666Z,-1.77
2018-12-15T00:28:11.128Z,-1.59
2018-12-15T00:30:49.229Z,-1.65
2018-12-15T00:33:30.210Z,-1.74
2018-12-15T00:36:08.715Z,-1.76
2018-12-15T00:38:50.341Z,-1.56
2018-12-15T00:41:30.471Z,-1.54
2018-12-15T00:44:08.383Z,-1.49
2018-12-15T00:46:48.338Z,-1.67
2018-12-15T00:49:23.504Z,-1.61
2018-12-15T00:52:01.731Z,-1.57
2018-12-15T00:57:25.603Z,-1.41
2018-12-15T01:00:04.815Z,-1.32
2018-12-15T01:02:41.302Z,-1.37
2018-12-15T01:05:16.639Z,-1.33
2018-12-15T01:07:56.280Z,-1.26
2018-12-15T01:10:45.373Z,-1.29
2018-12-15T01:13:23.567Z,-1.25
2018-12-15T01:15:58.571Z,-1.32
2018-12-15T01:18:35.250Z,-1.41
2018-12-15T01:21:16.781Z,-1.54
2018-12-15T01:23:51.242Z,-1.50
2018-12-15T01:26:29.388Z,-1.62
2018-12-15T01:29:06.915Z,-1.46
2018-12-15T01:31:42.984Z,-1.59
2018-12-15T01:34:18.639Z,-1.58
2018-12-15T01:37:03.547Z,-1.43
2018-12-15T01:39:43.132Z,-1.35
2018-12-15T01:42:21.272Z,-1.24
2018-12-15T01:44:57.110Z,-1.24
2018-12-15T01:47:38.414Z,-1.38
2018-12-15T01:50:17.127Z,-1.69
2018-12-15T01:52:51.562Z,-1.72
2018-12-15T01:55:30.258Z,-1.53
2018-12-15T01:58:14.534Z,-1.64
2018-12-15T02:00:54.265Z,-1.67
2018-12-15T02:03:30.435Z,-1.64
2018-12-15T02:06:08.503Z,-1.37
2018-12-15T02:08:47.909Z,-1.39
2018-12-15T02:11:35.323Z,-1.41
2018-12-15T02:14:10.396Z,-1.49
2018-12-15T02:16:45.282Z,-1.60
2018-12-15T02:19:26.267Z,-1.72
2018-12-15T02:22:05.166Z,-1.75
2018-12-15T02:24:44.192Z,-1.94
2018-12-15T02:27:23.053Z,-1.92
2018-12-15T02:29:59.390Z,-1.76
2018-12-15T02:32:38.452Z,-1.78
2018-12-15T02:35:16.784Z,-1.79
2018-12-15T02:37:56.745Z,-1.51
2018-12-15T02:40:37.676Z,-1.31
2018-12-15T02:43:24.734Z,-1.41
2018-12-15T02:45:59.581Z,-1.51
2018-12-15T02:48:40.569Z,-1.43
2018-12-15T02:51:19.214Z,-1.50
2018-12-15T02:53:55.643Z,-1.37
2018-12-15T02:56:35.127Z,-1.38
2018-12-15T02:59:11.223Z,-1.53
2018-12-15T03:01:51.718Z,-1.57
2018-12-15T03:04:40.277Z,-1.41
2018-12-15T03:07:14.605Z,-1.40
2018-12-15T03:09:49.230Z,-1.49
2018-12-15T03:12:29.840Z,-1.34
2018-12-15T03:15:05.865Z,-1.57
2018-12-15T03:17:49.019Z,-1.47
2018-12-15T03:20:27.497Z,-1.47
2018-12-15T03:23:05.395Z,-1.38
2018-12-15T03:25:43.555Z,-1.53
2018-12-15T03:28:22.496Z,-1.63
2018-12-15T03:30:57.669Z,-1.63
2018-12-15T03:33:36.921Z,-1.43
2018-12-15T03:36:14.807Z,-1.34
2018-12-15T03:38:55.893Z,-1.20
2018-12-15T03:41:36.700Z,-1.22
2018-12-15T03:44:14.538Z,-1.32
2018-12-15T03:46:52.740Z,-1.45
2018-12-15T03:49:33.621Z,-1.34
2018-12-15T03:52:14.048Z,-1.21
2018-12-15T03:54:52.329Z,-1.16
2018-12-15T03:57:31.816Z,-1.11
2018-12-15T04:00:10.531Z,-1.03
2018-12-15T04:02:50.637Z,-0.99
2018-12-15T04:05:31.157Z,-1.07
2018-12-15T04:08:09.748Z,-1.09
2018-12-15T04:10:50.205Z,-1.08
2018-12-15T04:13:28.552Z,-1.07
2018-12-15T04:16:08.935Z,-1.01
2018-12-15T04:18:46.275Z,-0.97
2018-12-15T04:21:23.018Z,-1.06
2018-12-15T04:24:04.426Z,-1.06
2018-12-15T04:26:39.231Z,-1.07
2018-12-15T04:29:19.815Z,-1.14
2018-12-15T04:31:54.782Z,-1.12
2018-12-15T04:34:29.940Z,-1.44
2018-12-15T04:37:11.154Z,-1.57
2018-12-15T04:39:48.056Z,-1.56
2018-12-15T04:42:25.772Z,-1.56
2018-12-15T04:45:00.264Z,-1.53
2018-12-15T04:47:39.585Z,-1.37
2018-12-15T04:50:14.243Z,-1.38
2018-12-15T04:52:49.700Z,-1.31
2018-12-15T04:55:24.027Z,-1.52
2018-12-15T04:58:00.950Z,-1.46
2018-12-15T05:00:40.097Z,-1.52
2018-12-15T05:05:47.214Z,-1.61
2018-12-15T05:08:29.010Z,-1.61
2018-12-15T05:11:04.081Z,-1.66
2018-12-15T05:13:39.880Z,-1.67
2018-12-15T05:16:17.623Z,-1.55
2018-12-15T05:18:57.137Z,-1.63
2018-12-15T05:21:33.470Z,-1.50
2018-12-15T05:24:12.044Z,-1.47
2018-12-15T05:26:52.291Z,-1.36
2018-12-15T05:29:33.466Z,-1.28
2018-12-15T05:32:08.349Z,-1.42
2018-12-15T05:34:42.670Z,-1.71
2018-12-15T05:37:22.303Z,-1.80
2018-12-15T05:40:03.498Z,-1.79
2018-12-15T05:42:44.744Z,-1.99
2018-12-15T05:45:19.787Z,-2.00
2018-12-15T05:47:58.229Z,-1.93
2018-12-15T05:50:36.181Z,-1.79
2018-12-15T05:53:11.067Z,-1.86
2018-12-15T05:55:47.671Z,-1.96
2018-12-15T05:58:23.861Z,-1.84
2018-12-15T06:01:14.837Z,-1.70
2018-12-15T06:03:53.730Z,-1.95
2018-12-15T06:06:32.411Z,-1.79
2018-12-15T06:11:44.308Z,-1.89
2018-12-15T06:14:23.407Z,-1.85
2018-12-15T06:17:03.931Z,-1.81
2018-12-15T06:19:42.649Z,-1.83
2018-12-15T06:22:23.678Z,-1.71
2018-12-15T06:24:58.156Z,-1.75
2018-12-15T06:27:33.274Z,-1.73
2018-12-15T06:30:09.421Z,-1.70
2018-12-15T06:32:51.082Z,-1.52
2018-12-15T06:35:26.998Z,-1.55
2018-12-15T06:38:08.121Z,-1.53
2018-12-15T06:40:46.030Z,-1.87
2018-12-15T06:43:26.818Z,-1.68
2018-12-15T06:46:06.929Z,-1.63
2018-12-15T06:48:44.599Z,-1.61
2018-12-15T06:51:21.611Z,-1.75
2018-12-15T06:53:59.879Z,-1.78
2018-12-15T06:56:41.105Z,-1.63
2018-12-15T06:59:22.407Z,-1.59
2018-12-15T07:02:03.008Z,-1.87
2018-12-15T07:04:39.460Z,-1.91
2018-12-15T07:07:26.011Z,-1.69
2018-12-15T07:10:07.378Z,-1.80
2018-12-15T07:12:42.782Z,-1.77
2018-12-15T07:15:20.538Z,-1.76
2018-12-15T07:18:01.275Z,-1.90
2018-12-15T07:20:38.948Z,-1.97
2018-12-15T07:23:18.037Z,-1.87
2018-12-15T07:25:52.828Z,-1.67
2018-12-15T07:28:27.570Z,-1.72
2018-12-15T07:31:02.149Z,-1.99
2018-12-15T07:33:37.082Z,-1.86
2018-12-15T07:36:11.465Z,-2.03
2018-12-15T07:38:45.836Z,-1.93
2018-12-15T07:41:20.311Z,-1.91
2018-12-15T07:43:54.762Z,-2.13
2018-12-15T07:46:39.426Z,-1.93
2018-12-15T07:49:14.354Z,-2.03
2018-12-15T07:51:48.865Z,-1.97
2018-12-15T07:54:30.991Z,-1.93
2018-12-15T08:00:09.305Z,-1.86
2018-12-15T08:02:52.432Z,-1.84
2018-12-15T08:05:31.971Z,-1.62
2018-12-15T08:08:13.031Z,-1.67
2018-12-15T08:10:58.858Z,-1.69
2018-12-15T08:13:42.495Z,-1.97
2018-12-15T08:16:17.005Z,-1.90
2018-12-15T08:18:57.897Z,-1.82
2018-12-15T08:21:40.786Z,-1.80
2018-12-15T08:24:19.163Z,-1.78
2018-12-15T08:26:55.372Z,-1.71
2018-12-15T08:29:47.415Z,-1.62
2018-12-15T08:32:40.312Z,-1.86
2018-12-15T08:35:22.784Z,-2.01
2018-12-15T08:37:58.903Z,-2.09
2018-12-15T08:40:40.054Z,-2.00
2018-12-15T08:43:15.068Z,-1.74
2018-12-15T08:54:39.415Z,-1.88
2018-12-15T08:57:18.174Z,-1.84
2018-12-15T09:00:04.231Z,-1.65
2018-12-15T09:05:36.471Z,-2.10
2018-12-15T09:08:11.135Z,-1.83
2018-12-15T09:11:03.994Z,-1.91
2018-12-15T09:13:40.424Z,-1.99
2018-12-15T09:16:15.042Z,-2.09
2018-12-15T09:19:01.532Z,-2.09
2018-12-15T09:24:35.831Z,-2.05
2018-12-15T09:27:10.459Z,-1.88
2018-12-15T09:32:41.603Z,-2.00
2018-12-15T09:35:20.156Z,-2.12
2018-12-15T09:38:11.221Z,-2.19
2018-12-15T09:40:51.884Z,-2.38
2018-12-15T09:43:32.718Z,-2.14
2018-12-15T09:46:22.087Z,-2.09
2018-12-15T09:48:57.991Z,-1.99
2018-12-15T09:51:40.854Z,-1.82
2018-12-15T09:54:22.154Z,-1.86
2018-12-15T09:57:01.265Z,-1.88
2018-12-15T09:59:38.948Z,-1.73
2018-12-15T10:02:14.073Z,-1.81
2018-12-15T10:04:48.990Z,-1.87
2018-12-15T10:07:23.298Z,-1.66
2018-12-15T10:09:57.941Z,-1.61
2018-12-15T10:12:33.387Z,-1.67
2018-12-15T10:15:08.760Z,-1.71
2018-12-15T10:17:43.316Z,-1.91
2018-12-15T10:20:18.054Z,-1.72
2018-12-15T10:22:52.365Z,-1.78
2018-12-15T10:25:27.615Z,-1.74
2018-12-15T10:28:02.182Z,-1.63
2018-12-15T10:30:41.934Z,-1.73
2018-12-15T10:33:16.343Z,-1.59
2018-12-15T10:35:50.979Z,-1.58
2018-12-15T10:38:25.808Z,-1.67
2018-12-15T10:41:00.727Z,-1.63
2018-12-15T10:43:35.463Z,-1.73
2018-12-15T10:46:10.022Z,-1.84
2018-12-15T10:48:45.208Z,-1.83
2018-12-15T10:51:19.711Z,-1.65
2018-12-15T10:53:54.483Z,-1.69
2018-12-15T10:56:29.704Z,-1.57
2018-12-15T10:59:04.227Z,-1.61
2018-12-15T11:01:39.156Z,-1.36
2018-12-15T11:04:13.806Z,-1.65
2018-12-15T11:06:48.723Z,-1.67
2018-12-15T11:09:24.094Z,-1.57
2018-12-15T11:11:59.446Z,-1.76
2018-12-15T11:14:34.527Z,-1.59
2018-12-15T11:17:09.111Z,-1.46
2018-12-15T11:19:43.514Z,-1.52
2018-12-15T11:22:18.110Z,-1.72
2018-12-15T11:24:52.802Z,-1.41
2018-12-15T11:27:27.727Z,-1.30
2018-12-15T11:30:07.902Z,-1.38
2018-12-15T11:32:42.452Z,-1.27
2018-12-15T11:35:17.383Z,-1.33
2018-12-15T11:37:52.119Z,-1.28
2018-12-15T11:40:26.853Z,-1.20
2018-12-15T11:43:01.310Z,-1.35
2018-12-15T11:45:36.211Z,-1.45
2018-12-15T11:48:10.740Z,-1.27
2018-12-15T11:50:45.274Z,-1.02
2018-12-15T11:53:19.611Z,-0.97
2018-12-15T11:55:54.523Z,-0.92
2018-12-15T11:58:29.459Z,-0.80
2018-12-15T12:01:05.122Z,-0.86
2018-12-15T12:03:39.519Z,-0.82
2018-12-15T12:06:14.050Z,-0.95
2018-12-15T12:08:49.672Z,-1.06
2018-12-15T12:11:24.062Z,-1.00
2018-12-15T12:14:00.413Z,-0.97
2018-12-15T12:16:35.186Z,-1.13
2018-12-15T12:19:10.111Z,-1.26
2018-12-15T12:21:44.903Z,-1.32
2018-12-15T12:24:20.281Z,-1.37
2018-12-15T12:26:54.743Z,-1.27
2018-12-15T12:29:29.435Z,-1.28
2018-12-15T12:32:04.235Z,-1.37
2018-12-15T12:34:38.626Z,-1.30
2018-12-15T12:37:12.981Z,-1.12
2018-12-15T12:39:47.509Z,-1.25
2018-12-15T12:42:22.433Z,-1.06
2018-12-15T12:44:57.492Z,-1.07
2018-12-15T12:47:32.259Z,-1.39
2018-12-15T12:50:07.790Z,-1.46
2018-12-15T12:52:42.180Z,-1.47
2018-12-15T12:55:16.782Z,-1.36
2018-12-15T12:57:52.161Z,-1.28
2018-12-15T13:00:27.451Z,-1.48
2018-12-15T13:03:01.777Z,-1.69
2018-12-15T13:05:36.406Z,-1.53
2018-12-15T13:08:10.975Z,-1.64
2018-12-15T13:10:45.534Z,-1.41
2018-12-15T13:13:20.416Z,-1.52
2018-12-15T13:15:54.728Z,-1.61
2018-12-15T13:18:29.829Z,-1.48
2018-12-15T13:21:04.923Z,-1.31
2018-12-15T13:23:39.245Z,-1.17
2018-12-15T13:26:14.082Z,-1.12
2018-12-15T13:28:48.639Z,-1.40
2018-12-15T13:31:23.343Z,-1.68
2018-12-15T13:33:58.250Z,-1.74
2018-12-15T13:36:33.275Z,-1.65
2018-12-15T13:39:08.751Z,-1.80
2018-12-15T13:41:43.707Z,-1.62
2018-12-15T13:44:18.063Z,-1.44
2018-12-15T13:46:52.546Z,-1.33
2018-12-15T13:49:27.688Z,-1.50
2018-12-15T13:52:02.554Z,-1.37
2018-12-15T13:54:37.019Z,-1.45
2018-12-15T13:57:11.926Z,-1.45
2018-12-15T13:59:46.350Z,-1.43
2018-12-15T14:02:20.816Z,-1.44
2018-12-15T14:04:55.559Z,-1.30
2018-12-15T14:07:30.111Z,-1.26
2018-12-15T14:10:07.254Z,-1.09
2018-12-15T14:12:41.582Z,-1.15
2018-12-15T14:15:16.402Z,-1.28
2018-12-15T14:17:51.284Z,-1.48
2018-12-15T14:20:26.538Z,-1.50
2018-12-15T14:23:01.201Z,-1.35
2018-12-15T14:25:38.211Z,-1.45
2018-12-15T14:28:12.836Z,-1.40
2018-12-15T14:30:47.316Z,-1.52
2018-12-15T14:33:22.415Z,-1.49
2018-12-15T14:35:58.197Z,-1.53
2018-12-15T14:38:33.153Z,-1.44
2018-12-15T14:41:07.707Z,-1.71
2018-12-15T14:43:44.059Z,-1.82
2018-12-15T14:46:20.417Z,-1.85
2018-12-15T14:48:55.958Z,-1.88
2018-12-15T14:51:30.735Z,-1.73
2018-12-15T14:54:05.528Z,-1.73
2018-12-15T14:56:40.083Z,-1.54
2018-12-15T14:59:18.278Z,-1.40
2018-12-15T15:01:53.111Z,-1.31
2018-12-15T15:04:27.707Z,-1.19
2018-12-15T15:10:00.011Z,-1.83
2018-12-15T15:12:34.983Z,-1.98
2018-12-15T15:15:10.294Z,-2.12
2018-12-15T15:20:41.831Z,-1.65
2018-12-15T15:23:34.352Z,-1.61
2018-12-15T15:26:09.474Z,-1.55
2018-12-15T15:28:44.680Z,-1.70
2018-12-15T15:31:19.526Z,-1.83
2018-12-15T15:33:54.053Z,-1.97
2018-12-15T15:36:28.559Z,-1.90
2018-12-15T15:39:04.633Z,-1.71
2018-12-15T15:41:39.163Z,-1.67
2018-12-15T15:44:14.279Z,-1.76
2018-12-15T15:46:48.766Z,-1.76
2018-12-15T15:49:23.637Z,-1.77
2018-12-15T15:51:57.991Z,-1.91
2018-12-15T15:54:33.834Z,-1.89
2018-12-15T15:57:09.530Z,-1.86
2018-12-15T15:59:44.470Z,-1.78
2018-12-15T16:02:18.910Z,-1.82
2018-12-15T16:04:54.951Z,-1.79
2018-12-15T16:07:29.484Z,-1.74
2018-12-15T16:10:05.685Z,-1.61
2018-12-15T16:12:40.624Z,-1.59
2018-12-15T16:15:16.300Z,-1.68
2018-12-15T16:17:51.255Z,-1.65
2018-12-15T16:20:43.296Z,-1.60
2018-12-15T16:23:19.482Z,-1.73
2018-12-15T16:25:54.088Z,-1.64
2018-12-15T16:28:28.495Z,-1.55
2018-12-15T16:31:03.508Z,-1.53
2018-12-15T16:33:37.942Z,-1.55
2018-12-15T16:36:12.866Z,-1.52
2018-12-15T16:38:47.174Z,-1.63
2018-12-15T16:41:22.060Z,-1.50
2018-12-15T16:43:56.364Z,-1.61
2018-12-15T16:46:33.764Z,-1.64
2018-12-15T16:49:08.469Z,-1.75
2018-12-15T16:51:42.794Z,-1.88
2018-12-15T16:54:17.755Z,-1.73
2018-12-15T16:56:52.811Z,-1.88
2018-12-15T16:59:27.754Z,-1.75
2018-12-15T17:02:02.430Z,-1.77
2018-12-15T17:04:36.875Z,-1.87
2018-12-15T17:07:12.598Z,-1.72
2018-12-15T17:09:48.374Z,-1.74
2018-12-15T17:12:23.085Z,-2.02
2018-12-15T17:14:57.628Z,-2.07
2018-12-15T17:17:32.523Z,-2.00
2018-12-15T17:20:10.031Z,-1.82
2018-12-15T17:22:44.659Z,-1.93
2018-12-15T17:25:19.643Z,-1.91
2018-12-15T17:27:54.566Z,-2.02
2018-12-15T17:30:29.029Z,-2.20
2018-12-15T17:33:04.438Z,-2.21
2018-12-15T17:35:39.674Z,-1.98
2018-12-15T17:38:14.521Z,-2.25
2018-12-15T17:40:57.156Z,-2.31
2018-12-15T17:43:31.930Z,-2.24
2018-12-15T17:46:06.475Z,-2.32
2018-12-15T17:48:41.080Z,-2.35
2018-12-15T17:51:15.611Z,-2.28
2018-12-15T17:53:50.318Z,-2.24
2018-12-15T17:56:24.782Z,-2.30
2018-12-15T17:58:59.343Z,-2.26
2018-12-15T18:01:34.698Z,-2.27
2018-12-15T18:04:09.291Z,-2.25
2018-12-15T18:09:18.019Z,-2.34
2018-12-15T18:11:53.469Z,-2.18
2018-12-15T18:14:28.426Z,-2.22
2018-12-15T18:17:03.559Z,-2.33
2018-12-15T18:19:38.660Z,-2.14
2018-12-15T18:22:13.519Z,-2.27
2018-12-15T18:24:48.517Z,-2.27
2018-12-15T18:27:23.211Z,-2.31
2018-12-15T18:30:05.610Z,-2.34
2018-12-15T18:35:36.499Z,-2.41
2018-12-15T18:38:11.187Z,-2.21
2018-12-15T18:40:47.011Z,-2.22
2018-12-15T18:43:21.356Z,-2.33
2018-12-15T18:45:56.638Z,-2.34
2018-12-15T18:48:31.128Z,-2.26
2018-12-15T18:51:05.533Z,-2.48
2018-12-15T18:53:39.998Z,-2.31
2018-12-15T18:56:14.913Z,-2.46
2018-12-15T18:58:50.410Z,-2.32
2018-12-15T19:01:25.744Z,-2.44
2018-12-15T19:04:00.904Z,-2.45
2018-12-15T19:06:35.571Z,-2.55
2018-12-15T19:09:10.675Z,-2.50
2018-12-15T19:11:45.619Z,-2.52
2018-12-15T19:14:20.166Z,-2.41
2018-12-15T19:16:54.934Z,-2.61
2018-12-15T19:19:29.389Z,-2.64
2018-12-15T19:22:04.199Z,-2.58
2018-12-15T19:24:38.560Z,-2.49
2018-12-15T19:27:13.500Z,-2.48
2018-12-15T19:29:48.166Z,-2.44
2018-12-15T19:32:22.618Z,-2.44
2018-12-15T19:34:57.140Z,-2.72
2018-12-15T19:37:31.626Z,-2.79
2018-12-15T19:40:07.426Z,-2.72
2018-12-15T19:42:41.952Z,-2.61
2018-12-15T19:45:17.080Z,-2.74
2018-12-15T19:47:51.418Z,-2.70
2018-12-15T19:50:26.139Z,-2.70
2018-12-15T19:53:00.645Z,-2.73
2018-12-15T19:55:35.790Z,-2.75
2018-12-15T19:58:11.180Z,-2.76
2018-12-15T20:00:45.837Z,-3.12
2018-12-15T20:03:20.979Z,-3.14
2018-12-15T20:05:56.007Z,-3.35
2018-12-15T20:08:31.290Z,-3.42
2018-12-15T20:11:05.691Z,-3.45
2018-12-15T20:13:40.033Z,-3.43
2018-12-15T20:16:14.695Z,-3.50
2018-12-15T20:18:49.276Z,-3.53
2018-12-15T20:21:24.390Z,-3.45
2018-12-15T20:23:59.062Z,-3.43
2018-12-15T20:26:33.634Z,-3.46
2018-12-15T20:29:08.382Z,-3.48
2018-12-15T20:31:43.474Z,-3.44
2018-12-15T20:34:17.993Z,-3.47
2018-12-15T20:36:52.771Z,-3.46
2018-12-15T20:39:27.062Z,-3.48
2018-12-15T20:42:01.402Z,-3.73
2018-12-15T20:44:41.716Z,-3.85
2018-12-15T20:47:13.711Z,-3.99
2018-12-15T20:49:48.115Z,-3.94
2018-12-15T20:52:22.458Z,-3.84
2018-12-15T20:54:57.231Z,-3.75
2018-12-15T20:57:31.717Z,-3.78
2018-12-15T21:00:08.623Z,-3.78
2018-12-15T21:02:43.213Z,-3.98
2018-12-15T21:05:17.747Z,-4.20
2018-12-15T21:07:53.016Z,-4.23
2018-12-15T21:10:27.451Z,-4.30
2018-12-15T21:13:01.758Z,-4.23
2018-12-15T21:15:40.635Z,-4.18
2018-12-15T21:18:15.542Z,-4.07
2018-12-15T21:20:50.007Z,-4.14
2018-12-15T21:23:24.743Z,-4.22
2018-12-15T21:25:59.339Z,-4.11
2018-12-15T21:28:33.995Z,-4.12
2018-12-15T21:31:08.925Z,-4.15
2018-12-15T21:33:43.387Z,-4.12
2018-12-15T21:36:18.706Z,-4.17
2018-12-15T21:38:53.992Z,-4.17
2018-12-15T21:41:28.733Z,-4.14
2018-12-15T21:44:04.349Z,-4.20
2018-12-15T21:46:38.790Z,-4.19
2018-12-15T21:49:13.719Z,-4.25
2018-12-15T21:51:48.435Z,-4.28
2018-12-15T21:54:23.085Z,-4.31
2018-12-15T21:56:57.856Z,-4.36
2018-12-15T21:59:32.412Z,-4.42
2018-12-15T22:02:07.620Z,-4.46
2018-12-15T22:04:44.911Z,-4.50
2018-12-15T22:07:19.207Z,-4.57
2018-12-15T22:09:53.688Z,-4.57
2018-12-15T22:12:28.395Z,-4.62
2018-12-15T22:15:03.943Z,-4.67
2018-12-15T22:17:38.361Z,-4.71
2018-12-15T22:20:13.554Z,-4.72
2018-12-15T22:22:48.022Z,-4.75
2018-12-15T22:25:22.408Z,-4.75
2018-12-15T22:27:57.385Z,-4.79
2018-12-15T22:30:32.379Z,-4.86
2018-12-15T22:33:07.281Z,-4.91
2018-12-15T22:35:42.275Z,-4.94
2018-12-15T22:38:17.042Z,-5.01
2018-12-15T22:40:51.951Z,-5.04
2018-12-15T22:43:26.780Z,-5.09
2018-12-15T22:46:01.792Z,-5.12
2018-12-15T22:48:41.004Z,-5.13
2018-12-15T22:51:15.858Z,-5.14
2018-12-15T22:53:50.747Z,-5.23
2018-12-15T22:56:25.423Z,-5.23
2018-12-15T22:59:00.303Z,-5.22
2018-12-15T23:01:40.375Z,-5.23
2018-12-15T23:04:15.709Z,-5.23
2018-12-15T23:06:50.386Z,-5.23
2018-12-15T23:09:24.783Z,-5.25
2018-12-15T23:12:00.521Z,-5.35
2018-12-15T23:14:35.359Z,-5.39
2018-12-15T23:17:10.554Z,-5.43
2018-12-15T23:19:44.995Z,-5.45
2018-12-15T23:22:19.411Z,-5.43
2018-12-15T23:24:54.038Z,-5.33
2018-12-15T23:27:30.359Z,-5.34
2018-12-15T23:30:07.344Z,-5.51
2018-12-15T23:32:42.490Z,-5.60
2018-12-15T23:35:17.587Z,-5.59
2018-12-15T23:37:52.186Z,-5.70
2018-12-15T23:40:27.258Z,-5.67
2018-12-15T23:43:02.298Z,-5.62
2018-12-15T23:45:37.338Z,-5.69
2018-12-15T23:48:12.462Z,-5.65
2018-12-15T23:50:46.978Z,-5.70
2018-12-15T23:53:22.064Z,-5.69
2018-12-15T23:55:56.457Z,-5.76
2018-12-15T23:58:30.826Z,-6.06
